createdAt,value
2018-06-23T00:02:07.793Z,21.10
2018-06-23T00:04:36.067Z,21.10
2018-06-23T00:07:04.387Z,21.10
2018-06-23T00:09:32.660Z,21.00
2018-06-23T00:12:00.919Z,21.00
2018-06-23T00:14:29.195Z,21.00
2018-06-23T00:16:57.480Z,21.00
2018-06-23T00:21:53.809Z,21.00
2018-06-23T00:24:22.091Z,21.00
2018-06-23T00:26:50.374Z,20.90
2018-06-23T00:29:18.653Z,20.90
2018-06-23T00:31:46.955Z,20.90
2018-06-23T00:34:15.239Z,20.90
2018-06-23T00:36:43.515Z,20.90
2018-06-23T00:39:11.781Z,20.90
2018-06-23T00:41:40.101Z,21.00
2018-06-23T00:44:08.353Z,21.10
2018-06-23T00:46:36.645Z,21.10
2018-06-23T00:49:04.856Z,21.10
2018-06-23T00:51:33.157Z,21.10
2018-06-23T00:54:01.427Z,21.00
2018-06-23T00:56:29.717Z,20.90
2018-06-23T00:59:09.409Z,20.90
2018-06-23T01:01:37.713Z,20.90
2018-06-23T01:04:05.984Z,20.90
2018-06-23T01:06:34.348Z,20.90
2018-06-23T01:09:02.650Z,20.90
2018-06-23T01:11:30.931Z,20.90
2018-06-23T01:13:59.224Z,20.90
2018-06-23T01:16:27.584Z,20.90
2018-06-23T01:18:55.869Z,20.80
2018-06-23T01:21:24.145Z,20.80
2018-06-23T01:23:52.427Z,20.90
2018-06-23T01:26:20.733Z,20.90
2018-06-23T01:31:16.972Z,20.90
2018-06-23T01:33:45.241Z,20.90
2018-06-23T01:36:13.517Z,20.90
2018-06-23T01:38:41.811Z,20.90
2018-06-23T01:41:10.081Z,20.90
2018-06-23T01:43:38.389Z,20.90
2018-06-23T01:46:06.655Z,20.90
2018-06-23T01:48:34.919Z,20.90
2018-06-23T01:51:03.205Z,20.80
2018-06-23T01:53:31.451Z,20.80
2018-06-23T01:55:59.708Z,20.80
2018-06-23T01:58:28.073Z,20.80
2018-06-23T02:00:56.341Z,20.90
2018-06-23T02:03:24.639Z,20.90
2018-06-23T02:05:53.029Z,20.90
2018-06-23T02:08:21.299Z,20.90
2018-06-23T02:10:49.575Z,20.90
2018-06-23T02:13:17.935Z,20.80
2018-06-23T02:15:51.439Z,20.90
2018-06-23T02:18:25.160Z,20.80
2018-06-23T02:20:58.831Z,20.80
2018-06-23T02:23:32.431Z,20.80
2018-06-23T02:26:06.039Z,20.80
2018-06-23T02:28:39.608Z,20.70
2018-06-23T02:31:13.369Z,20.70
2018-06-23T02:33:46.967Z,20.70
2018-06-23T02:36:15.229Z,20.70
2018-06-23T02:38:43.524Z,20.70
2018-06-23T02:41:11.816Z,20.70
2018-06-23T02:43:40.084Z,20.70
2018-06-23T02:46:08.350Z,20.70
2018-06-23T02:48:36.623Z,20.60
2018-06-23T02:51:04.907Z,20.70
2018-06-23T02:56:01.230Z,20.80
2018-06-23T02:58:29.502Z,20.80
2018-06-23T03:00:57.784Z,20.90
2018-06-23T03:03:26.060Z,20.90
2018-06-23T03:05:54.380Z,20.80
2018-06-23T03:08:22.664Z,20.80
2018-06-23T03:10:50.940Z,20.80
2018-06-23T03:13:19.226Z,20.70
2018-06-23T03:15:47.496Z,20.70
2018-06-23T03:18:15.773Z,20.70
2018-06-23T03:20:44.063Z,20.70
2018-06-23T03:23:12.334Z,20.70
2018-06-23T03:25:40.628Z,20.60
2018-06-23T03:28:08.904Z,20.60
2018-06-23T03:30:37.173Z,20.60
2018-06-23T03:33:05.524Z,20.60
2018-06-23T03:35:33.783Z,20.60
2018-06-23T03:38:02.057Z,20.60
2018-06-23T03:40:30.316Z,20.70
2018-06-23T03:42:58.582Z,20.70
2018-06-23T03:45:26.852Z,20.70
2018-06-23T03:50:23.124Z,20.70
2018-06-23T03:52:51.399Z,20.60
2018-06-23T03:55:19.688Z,20.70
2018-06-23T03:57:47.954Z,20.70
2018-06-23T04:00:16.236Z,20.60
2018-06-23T04:02:44.508Z,20.60
2018-06-23T04:05:12.963Z,20.60
2018-06-23T04:07:41.264Z,20.60
2018-06-23T04:10:09.528Z,20.50
2018-06-23T04:12:37.790Z,20.60
2018-06-23T04:15:06.070Z,20.60
2018-06-23T04:17:34.332Z,20.60
2018-06-23T04:20:02.804Z,20.60
2018-06-23T04:24:59.079Z,20.60
2018-06-23T04:27:27.355Z,20.60
2018-06-23T04:29:55.636Z,20.60
2018-06-23T04:32:23.913Z,20.60
2018-06-23T04:34:52.205Z,20.60
2018-06-23T04:37:20.484Z,20.60
2018-06-23T04:39:48.761Z,20.60
2018-06-23T04:42:17.043Z,20.60
2018-06-23T04:44:45.317Z,20.50
2018-06-23T04:49:41.598Z,20.50
2018-06-23T04:52:09.896Z,20.50
2018-06-23T04:54:38.170Z,20.50
2018-06-23T04:57:06.472Z,20.50
2018-06-23T04:59:34.836Z,20.50
2018-06-23T05:02:03.102Z,20.50
2018-06-23T05:04:31.376Z,20.50
2018-06-23T05:06:59.664Z,20.50
2018-06-23T05:09:27.976Z,20.50
2018-06-23T05:11:56.272Z,20.60
2018-06-23T05:14:24.569Z,20.60
2018-06-23T05:16:52.886Z,20.70
2018-06-23T05:21:49.242Z,20.70
2018-06-23T05:26:45.640Z,20.60
2018-06-23T05:29:13.948Z,20.60
2018-06-23T05:31:42.248Z,20.50
2018-06-23T05:34:10.548Z,20.50
2018-06-23T05:36:38.843Z,20.50
2018-06-23T05:39:08.420Z,20.50
2018-06-23T05:41:36.705Z,20.50
2018-06-23T05:44:05.132Z,20.50
2018-06-23T05:46:33.442Z,20.50
2018-06-23T05:49:01.680Z,20.50
2018-06-23T05:53:58.098Z,20.50
2018-06-23T05:56:26.404Z,20.50
2018-06-23T05:58:54.752Z,20.60
2018-06-23T06:01:23.055Z,20.60
2018-06-23T06:03:51.452Z,20.60
2018-06-23T06:06:19.763Z,20.60
2018-06-23T06:11:16.091Z,20.60
2018-06-23T06:13:44.408Z,20.60
2018-06-23T06:16:12.707Z,20.60
2018-06-23T06:18:40.972Z,20.50
2018-06-23T06:23:37.237Z,20.50
2018-06-23T06:26:05.526Z,20.50
2018-06-23T06:28:33.851Z,20.50
2018-06-23T06:31:02.129Z,20.50
2018-06-23T06:33:30.405Z,20.60
2018-06-23T06:35:58.689Z,20.60
2018-06-23T06:38:26.976Z,20.60
2018-06-23T06:40:55.272Z,20.60
2018-06-23T06:43:23.563Z,20.60
2018-06-23T06:45:51.955Z,20.50
2018-06-23T06:48:20.280Z,20.60
2018-06-23T06:50:48.595Z,20.60
2018-06-23T06:53:16.905Z,20.50
2018-06-23T06:55:45.205Z,20.50
2018-06-23T07:00:41.597Z,20.40
2018-06-23T07:03:09.927Z,20.40
2018-06-23T07:05:38.234Z,20.50
2018-06-23T07:08:06.520Z,20.50
2018-06-23T07:10:34.816Z,20.40
2018-06-23T07:13:03.089Z,20.40
2018-06-23T07:15:31.408Z,20.40
2018-06-23T07:17:59.683Z,20.40
2018-06-23T07:20:28.013Z,20.40
2018-06-23T07:22:56.285Z,20.40
2018-06-23T07:25:24.668Z,20.50
2018-06-23T07:27:52.973Z,20.60
2018-06-23T07:30:21.280Z,20.60
2018-06-23T07:32:49.636Z,20.60
2018-06-23T07:35:18.203Z,20.60
2018-06-23T07:37:46.249Z,20.60
2018-06-23T07:42:42.579Z,20.50
2018-06-23T07:45:10.869Z,20.50
2018-06-23T07:47:39.169Z,20.40
2018-06-23T07:50:07.451Z,20.40
2018-06-23T07:52:35.741Z,20.40
2018-06-23T07:55:04.043Z,20.40
2018-06-23T07:57:32.333Z,20.40
2018-06-23T08:00:00.715Z,20.40
2018-06-23T08:02:28.977Z,20.40
2018-06-23T08:04:57.253Z,20.30
2018-06-23T08:07:25.573Z,20.40
2018-06-23T08:09:53.869Z,20.40
2018-06-23T08:12:22.153Z,20.50
2018-06-23T08:14:50.423Z,20.60
2018-06-23T08:17:18.795Z,20.60
2018-06-23T08:19:47.137Z,20.50
2018-06-23T08:22:15.441Z,20.50
2018-06-23T08:24:43.725Z,20.50
2018-06-23T08:27:12.008Z,20.50
2018-06-23T08:29:40.301Z,20.50
2018-06-23T08:32:08.617Z,20.50
2018-06-23T08:34:36.925Z,20.50
2018-06-23T08:37:05.225Z,20.40
2018-06-23T08:39:33.661Z,20.40
2018-06-23T08:42:01.954Z,20.40
2018-06-23T08:44:30.267Z,20.40
2018-06-23T08:46:58.588Z,20.40
2018-06-23T08:49:26.872Z,20.50
2018-06-23T08:51:55.219Z,20.50
2018-06-23T08:54:23.515Z,20.50
2018-06-23T08:56:51.841Z,20.50
2018-06-23T08:59:20.153Z,20.50
2018-06-23T09:01:48.499Z,20.50
2018-06-23T09:04:16.801Z,20.50
2018-06-23T09:06:45.076Z,20.50
2018-06-23T09:09:13.425Z,20.40
2018-06-23T09:11:41.692Z,20.40
2018-06-23T09:14:09.970Z,20.40
2018-06-23T09:16:38.257Z,20.40
2018-06-23T09:19:06.565Z,20.30
2018-06-23T09:21:35.095Z,20.40
2018-06-23T09:24:03.388Z,20.40
2018-06-23T09:26:31.901Z,20.50
2018-06-23T09:29:00.249Z,20.50
2018-06-23T09:31:28.628Z,20.50
2018-06-23T09:33:56.964Z,20.50
2018-06-23T09:36:25.262Z,20.50
2018-06-23T09:38:53.553Z,20.50
2018-06-23T09:41:21.918Z,20.50
2018-06-23T09:43:50.215Z,20.50
2018-06-23T09:46:18.498Z,20.40
2018-06-23T09:48:46.778Z,20.40
2018-06-23T09:51:15.073Z,20.40
2018-06-23T09:53:43.449Z,20.30
2018-06-23T09:56:11.769Z,20.30
2018-06-23T09:58:40.112Z,20.30
2018-06-23T10:01:08.405Z,20.40
2018-06-23T10:03:36.691Z,20.50
2018-06-23T10:06:04.967Z,20.50
2018-06-23T10:08:33.319Z,20.50
2018-06-23T10:11:01.589Z,20.40
2018-06-23T10:13:29.887Z,20.40
2018-06-23T10:18:26.171Z,20.40
2018-06-23T10:23:22.527Z,20.30
2018-06-23T10:25:50.803Z,20.30
2018-06-23T10:28:19.109Z,20.30
2018-06-23T10:33:15.661Z,20.20
2018-06-23T10:35:43.963Z,20.30
2018-06-23T10:38:12.355Z,20.30
2018-06-23T10:40:40.625Z,20.40
2018-06-23T10:45:36.918Z,20.40
2018-06-23T10:48:05.552Z,20.30
2018-06-23T10:50:33.885Z,20.30
2018-06-23T10:53:02.159Z,20.30
2018-06-23T10:55:30.457Z,20.40
2018-06-23T10:57:58.727Z,20.40
2018-06-23T11:00:27.009Z,20.30
2018-06-23T11:02:55.337Z,20.30
2018-06-23T11:05:23.640Z,20.30
2018-06-23T11:07:51.908Z,20.30
2018-06-23T11:10:20.189Z,20.30
2018-06-23T11:12:48.485Z,20.30
2018-06-23T11:15:16.759Z,20.40
2018-06-23T11:17:45.046Z,20.40
2018-06-23T11:20:13.335Z,20.40
2018-06-23T11:25:09.640Z,20.40
2018-06-23T11:27:37.944Z,20.30
2018-06-23T11:30:06.842Z,20.40
2018-06-23T11:32:35.183Z,20.40
2018-06-23T11:35:03.446Z,20.40
2018-06-23T11:39:59.746Z,20.30
2018-06-23T11:42:28.022Z,20.30
2018-06-23T11:44:56.305Z,20.30
2018-06-23T11:47:24.586Z,20.30
2018-06-23T11:49:53.232Z,20.30
2018-06-23T11:52:21.579Z,20.40
2018-06-23T11:54:49.851Z,20.50
2018-06-23T11:57:18.164Z,20.50
2018-06-23T11:59:46.448Z,20.50
2018-06-23T12:02:14.757Z,20.50
2018-06-23T12:07:11.022Z,20.50
2018-06-23T12:09:39.299Z,20.50
2018-06-23T12:12:07.585Z,20.50
2018-06-23T12:14:35.895Z,20.40
2018-06-23T12:19:32.199Z,20.30
2018-06-23T12:22:00.579Z,20.30
2018-06-23T12:24:28.863Z,20.30
2018-06-23T12:26:57.220Z,20.40
2018-06-23T12:29:25.501Z,20.40
2018-06-23T12:31:53.776Z,20.50
2018-06-23T12:34:22.076Z,20.40
2018-06-23T12:36:50.383Z,20.40
2018-06-23T12:39:18.689Z,20.40
2018-06-23T12:41:46.971Z,20.40
2018-06-23T12:44:15.285Z,20.40
2018-06-23T12:46:43.552Z,20.40
2018-06-23T12:49:11.831Z,20.40
2018-06-23T12:51:40.121Z,20.40
2018-06-23T12:54:08.394Z,20.30
2018-06-23T12:56:36.691Z,20.30
2018-06-23T12:59:05.318Z,20.30
2018-06-23T13:01:33.705Z,20.30
2018-06-23T13:04:01.988Z,20.30
2018-06-23T13:06:30.284Z,20.30
2018-06-23T13:08:58.564Z,20.30
2018-06-23T13:11:26.836Z,20.30
2018-06-23T13:13:55.107Z,20.30
2018-06-23T13:16:23.402Z,20.30
2018-06-23T13:18:51.690Z,20.30
2018-06-23T13:21:19.972Z,20.40
2018-06-23T13:23:48.298Z,20.40
2018-06-23T13:26:16.584Z,20.50
2018-06-23T13:28:44.898Z,20.60
2018-06-23T13:31:13.171Z,20.60
2018-06-23T13:33:41.441Z,20.60
2018-06-23T13:36:09.726Z,20.50
2018-06-23T13:38:37.997Z,20.50
2018-06-23T13:41:06.962Z,20.40
2018-06-23T13:43:35.356Z,20.40
2018-06-23T13:46:03.652Z,20.40
2018-06-23T13:48:31.942Z,20.40
2018-06-23T13:51:00.340Z,20.40
2018-06-23T13:53:28.737Z,20.40
2018-06-23T13:55:57.064Z,20.30
2018-06-23T13:58:25.384Z,20.30
2018-06-23T14:00:53.807Z,20.30
2018-06-23T14:03:22.167Z,20.30
2018-06-23T14:05:50.381Z,20.30
2018-06-23T14:08:18.707Z,20.30
2018-06-23T14:10:46.989Z,20.30
2018-06-23T14:13:15.308Z,20.30
2018-06-23T14:15:43.574Z,20.30
2018-06-23T14:18:11.864Z,20.30
2018-06-23T14:20:40.125Z,20.30
2018-06-23T14:23:08.489Z,20.30
2018-06-23T14:25:36.774Z,20.40
2018-06-23T14:28:05.296Z,20.50
2018-06-23T14:30:33.600Z,20.60
2018-06-23T14:33:01.899Z,20.60
2018-06-23T14:35:30.205Z,20.60
2018-06-23T14:37:58.548Z,20.50
2018-06-23T14:40:26.841Z,20.50
2018-06-23T14:42:55.136Z,20.40
2018-06-23T14:45:23.445Z,20.40
2018-06-23T14:47:51.719Z,20.40
2018-06-23T14:50:20.043Z,20.40
2018-06-23T14:52:48.317Z,20.40
2018-06-23T14:57:44.769Z,20.30
2018-06-23T15:00:13.083Z,20.30
2018-06-23T15:02:41.425Z,20.30
2018-06-23T15:05:09.687Z,20.30
2018-06-23T15:07:37.979Z,20.40
2018-06-23T15:10:17.741Z,20.40
2018-06-23T15:12:57.381Z,20.50
2018-06-23T15:15:25.665Z,20.50
2018-06-23T15:17:53.945Z,20.50
2018-06-23T15:20:22.221Z,20.40
2018-06-23T15:22:50.509Z,20.50
2018-06-23T15:25:18.796Z,20.50
2018-06-23T15:27:47.073Z,20.40
2018-06-23T15:30:15.371Z,20.40
2018-06-23T15:32:43.655Z,20.40
2018-06-23T15:35:11.973Z,20.40
2018-06-23T15:37:40.267Z,20.30
2018-06-23T15:40:08.581Z,20.30
2018-06-23T15:42:36.882Z,20.30
2018-06-23T15:45:05.155Z,20.30
2018-06-23T15:47:33.530Z,20.30
2018-06-23T15:50:01.893Z,20.30
2018-06-23T15:52:30.231Z,20.30
2018-06-23T15:54:58.601Z,20.30
2018-06-23T15:57:31.904Z,20.30
2018-06-23T16:00:00.227Z,20.30
2018-06-23T16:02:28.614Z,20.40
2018-06-23T16:04:56.969Z,20.50
2018-06-23T16:09:53.401Z,20.60
2018-06-23T16:12:21.766Z,20.60
2018-06-23T16:14:51.124Z,20.60
2018-06-23T16:17:19.373Z,20.50
2018-06-23T16:19:47.658Z,20.40
2018-06-23T16:22:15.939Z,20.40
2018-06-23T16:24:44.224Z,20.40
2018-06-23T16:27:12.559Z,20.40
2018-06-23T16:29:40.844Z,20.40
2018-06-23T16:32:09.145Z,20.30
2018-06-23T16:34:37.479Z,20.30
2018-06-23T16:37:05.776Z,20.30
2018-06-23T16:39:34.051Z,20.30
2018-06-23T16:42:02.392Z,20.30
2018-06-23T16:44:30.640Z,20.30
2018-06-23T16:49:26.955Z,20.40
2018-06-23T16:51:55.303Z,20.50
2018-06-23T16:54:23.595Z,20.50
2018-06-23T16:56:51.879Z,20.50
2018-06-23T16:59:20.160Z,20.40
2018-06-23T17:01:48.459Z,20.50
2018-06-23T17:04:16.861Z,20.40
2018-06-23T17:06:45.101Z,20.40
2018-06-23T17:09:13.395Z,20.40
2018-06-23T17:11:41.943Z,20.40
2018-06-23T17:14:10.331Z,20.30
2018-06-23T17:16:38.637Z,20.30
2018-06-23T17:19:06.956Z,20.30
2018-06-23T17:21:35.279Z,20.40
2018-06-23T17:24:03.571Z,20.40
2018-06-23T17:26:31.834Z,20.40
2018-06-23T17:29:00.134Z,20.40
2018-06-23T17:33:56.432Z,20.30
2018-06-23T17:36:24.707Z,20.30
2018-06-23T17:38:52.988Z,20.40
2018-06-23T17:41:21.289Z,20.40
2018-06-23T17:43:49.569Z,20.30
2018-06-23T17:46:17.836Z,20.30
2018-06-23T17:48:46.116Z,20.30
2018-06-23T17:51:14.416Z,20.30
2018-06-23T17:53:42.726Z,20.30
2018-06-23T17:56:11.012Z,20.30
2018-06-23T17:58:39.299Z,20.30
2018-06-23T18:01:07.576Z,20.50
2018-06-23T18:03:35.871Z,20.50
2018-06-23T18:06:04.216Z,20.60
2018-06-23T18:08:32.484Z,20.60
2018-06-23T18:11:00.780Z,20.50
2018-06-23T18:13:29.065Z,20.50
2018-06-23T18:15:57.345Z,20.50
2018-06-23T18:18:25.706Z,20.40
2018-06-23T18:20:54.015Z,20.40
2018-06-23T18:23:22.329Z,20.40
2018-06-23T18:25:50.616Z,20.40
2018-06-23T18:28:18.938Z,20.40
2018-06-23T18:30:47.371Z,20.40
2018-06-23T18:33:15.635Z,20.30
2018-06-23T18:40:39.943Z,20.30
2018-06-23T18:43:08.239Z,20.40
2018-06-23T18:45:36.533Z,20.40
2018-06-23T18:48:04.919Z,20.50
2018-06-23T18:50:33.195Z,20.50
2018-06-23T18:53:01.512Z,20.50
2018-06-23T18:55:29.814Z,20.50
2018-06-23T19:00:26.077Z,20.50
2018-06-23T19:02:54.365Z,20.40
2018-06-23T19:05:22.649Z,20.50
2018-06-23T19:07:50.947Z,20.40
2018-06-23T19:10:19.247Z,20.40
2018-06-23T19:12:47.527Z,20.40
2018-06-23T19:15:15.856Z,20.40
2018-06-23T19:17:44.124Z,20.40
2018-06-23T19:20:12.440Z,20.40
2018-06-23T19:22:40.747Z,20.50
2018-06-23T19:25:09.011Z,20.50
2018-06-23T19:27:37.291Z,20.50
2018-06-23T19:30:05.744Z,20.50
2018-06-23T19:32:33.974Z,20.40
2018-06-23T19:35:02.253Z,20.50
2018-06-23T19:37:30.644Z,20.50
2018-06-23T19:39:59.012Z,20.40
2018-06-23T19:42:27.279Z,20.40
2018-06-23T19:47:23.600Z,20.40
2018-06-23T19:49:51.949Z,20.30
2018-06-23T19:52:20.233Z,20.30
2018-06-23T19:54:48.520Z,20.40
2018-06-23T19:57:16.872Z,20.40
2018-06-23T20:02:13.170Z,20.30
2018-06-23T20:04:41.512Z,20.30
2018-06-23T20:09:37.935Z,20.30
2018-06-23T20:12:06.226Z,20.30
2018-06-23T20:14:34.557Z,20.40
2018-06-23T20:17:02.859Z,20.50
2018-06-23T20:19:31.130Z,20.60
2018-06-23T20:21:59.428Z,20.60
2018-06-23T20:24:27.698Z,20.60
2018-06-23T20:26:55.985Z,20.60
2018-06-23T20:29:24.380Z,20.50
2018-06-23T20:31:52.669Z,20.40
2018-06-23T20:34:20.956Z,20.40
2018-06-23T20:36:49.252Z,20.40
2018-06-23T20:39:17.544Z,20.40
2018-06-23T20:41:45.917Z,20.40
2018-06-23T20:44:14.138Z,20.40
2018-06-23T20:46:42.457Z,20.40
2018-06-23T20:49:10.756Z,20.30
2018-06-23T20:51:39.048Z,20.30
2018-06-23T20:54:07.350Z,20.30
2018-06-23T20:56:35.662Z,20.30
2018-06-23T20:59:04.065Z,20.40
2018-06-23T21:01:32.440Z,20.40
2018-06-23T21:04:00.716Z,20.50
2018-06-23T21:06:29.026Z,20.50
2018-06-23T21:08:57.300Z,20.40
2018-06-23T21:11:25.592Z,20.40
2018-06-23T21:13:53.953Z,20.50
2018-06-23T21:16:22.224Z,20.50
2018-06-23T21:18:50.507Z,20.40
2018-06-23T21:21:18.804Z,20.40
2018-06-23T21:23:47.130Z,20.40
2018-06-23T21:26:15.424Z,20.40
2018-06-23T21:28:43.721Z,20.30
2018-06-23T21:31:12.010Z,20.30
2018-06-23T21:33:40.316Z,20.30
2018-06-23T21:36:08.625Z,20.30
2018-06-23T21:38:36.923Z,20.30
2018-06-23T21:41:05.204Z,20.30
2018-06-23T21:43:33.523Z,20.30
2018-06-23T21:46:01.807Z,20.30
2018-06-23T21:48:30.113Z,20.20
2018-06-23T21:50:58.392Z,20.20
2018-06-23T21:53:26.682Z,20.30
2018-06-23T21:55:54.996Z,20.40
2018-06-23T21:58:23.298Z,20.40
2018-06-23T22:00:51.691Z,20.60
2018-06-23T22:03:19.956Z,20.60
2018-06-23T22:05:48.241Z,20.50
2018-06-23T22:08:16.533Z,20.50
2018-06-23T22:10:44.830Z,20.40
2018-06-23T22:15:41.105Z,20.40
2018-06-23T22:18:09.407Z,20.30
2018-06-23T22:20:37.696Z,20.30
2018-06-23T22:23:06.003Z,20.30
2018-06-23T22:25:34.290Z,20.30
2018-06-23T22:28:02.591Z,20.30
2018-06-23T22:30:30.885Z,20.30
2018-06-23T22:32:59.174Z,20.30
2018-06-23T22:35:27.473Z,20.30
2018-06-23T22:37:55.757Z,20.20
2018-06-23T22:40:24.019Z,20.30
2018-06-23T22:42:52.337Z,20.40
2018-06-23T22:45:20.641Z,20.40
2018-06-23T22:47:48.907Z,20.50
2018-06-23T22:50:17.270Z,20.40
2018-06-23T22:52:45.549Z,20.40
2018-06-23T22:55:13.918Z,20.40
2018-06-23T22:57:42.159Z,20.40
2018-06-23T23:00:12.487Z,20.40
2018-06-23T23:02:40.828Z,20.30
2018-06-23T23:05:09.552Z,20.30
2018-06-23T23:07:38.056Z,20.30
2018-06-23T23:10:07.126Z,20.30
2018-06-23T23:12:35.398Z,20.30
2018-06-23T23:15:03.916Z,20.30
2018-06-23T23:17:32.410Z,20.30
2018-06-23T23:20:00.698Z,20.30
2018-06-23T23:22:29.175Z,20.30
2018-06-23T23:24:57.476Z,20.20
2018-06-23T23:27:25.748Z,20.20
2018-06-23T23:29:54.037Z,20.20
2018-06-23T23:32:22.371Z,20.20
2018-06-23T23:34:51.009Z,20.30
2018-06-23T23:37:19.332Z,20.40
2018-06-23T23:39:47.605Z,20.40
2018-06-23T23:42:15.983Z,20.50
2018-06-23T23:47:12.266Z,20.40
2018-06-23T23:49:40.546Z,20.40
2018-06-23T23:52:08.822Z,20.30
2018-06-23T23:54:37.101Z,20.30
2018-06-23T23:57:05.643Z,20.30
2018-06-23T23:59:34.028Z,20.30
